Time;durP1;ratioP1;P1;durP2;ratioP2;P2;SDS_P1;SDS_P2;PMS_P1;PMS_P2;Temp;Humidity;BMP_temperature;BMP_pressure;BME280_temperature;BME280_humidity;BME280_pressure;Samples;Min_cycle;Max_cycle;Signal;HPM_P1;HPM_P2
2023/01/24 00:01:14;;;;;;;9.57;8.83;;;3.30;1.00;;;;;;5052001;28;20293;-65
2023/01/24 00:03:40;;;;;;;9.43;8.83;;;3.30;1.00;;;;;;5052298;28;20209;-65
2023/01/24 00:06:06;;;;;;;9.80;9.23;;;3.30;1.00;;;;;;5052189;28;20210;-65
2023/01/24 00:08:31;;;;;;;9.80;9.20;;;3.30;1.00;;;;;;5052571;28;20681;-65
2023/01/24 00:10:59;;;;;;;10.37;9.37;;;3.30;1.00;;;;;;5052126;28;20556;-65
2023/01/24 00:13:25;;;;;;;9.87;9.10;;;3.40;1.00;;;;;;5052182;28;20171;-65
2023/01/24 00:15:51;;;;;;;10.23;9.63;;;3.40;1.00;;;;;;5052181;28;20199;-65
2023/01/24 00:18:16;;;;;;;10.77;10.17;;;3.30;99.90;;;;;;5051149;28;20190;-65
2023/01/24 00:20:42;;;;;;;10.27;9.57;;;3.40;99.90;;;;;;5033427;28;20172;-65
2023/01/24 00:23:08;;;;;;;10.67;9.97;;;3.40;99.90;;;;;;5032243;28;20164;-66
2023/01/24 00:25:33;;;;;;;9.50;8.87;;;3.40;99.90;;;;;;5034089;28;20200;-65
2023/01/24 00:27:59;;;;;;;11.27;10.37;;;3.40;99.90;;;;;;5033560;28;20209;-65
2023/01/24 00:30:24;;;;;;;9.90;9.40;;;3.50;99.90;;;;;;5035044;28;20608;-66
2023/01/24 00:32:50;;;;;;;11.33;10.53;;;3.50;1.00;;;;;;5053301;28;20183;-66
2023/01/24 00:35:16;;;;;;;11.53;10.67;;;3.50;1.00;;;;;;5052737;28;20218;-66
2023/01/24 00:37:41;;;;;;;10.63;9.90;;;3.50;1.00;;;;;;5052795;28;20197;-66
2023/01/24 00:40:08;;;;;;;11.20;10.40;;;3.50;1.00;;;;;;5051532;28;20167;-65
2023/01/24 00:42:34;;;;;;;10.73;10.10;;;3.50;1.00;;;;;;5052003;28;20567;-65
2023/01/24 00:44:59;;;;;;;13.40;10.50;;;3.50;1.00;;;;;;5051288;28;20174;-65
2023/01/24 00:47:25;;;;;;;11.30;10.50;;;3.50;1.00;;;;;;5052035;28;20233;-65
2023/01/24 00:49:50;;;;;;;11.13;10.33;;;3.50;1.00;;;;;;5051082;28;20175;-66
2023/01/24 00:52:16;;;;;;;11.73;10.87;;;3.50;1.00;;;;;;5051777;28;20177;-66
2023/01/24 00:54:42;;;;;;;10.57;9.97;;;3.60;1.00;;;;;;5051474;28;20206;-66
2023/01/24 00:57:07;;;;;;;12.17;11.17;;;3.60;1.00;;;;;;5051183;28;20248;-66
2023/01/24 00:59:33;;;;;;;12.23;11.03;;;3.50;1.00;;;;;;5051242;28;20171;-65
2023/01/24 01:01:58;;;;;;;10.70;10.10;;;3.50;9.70;;;;;;5051167;28;20175;-64
2023/01/24 01:04:24;;;;;;;10.80;10.07;;;3.50;99.90;;;;;;5051349;28;20193;-65
2023/01/24 01:06:49;;;;;;;10.00;9.40;;;3.50;99.90;;;;;;5051489;28;20650;-65
2023/01/24 01:09:15;;;;;;;11.90;11.00;;;3.50;99.90;;;;;;5051061;28;20167;-65
2023/01/24 01:11:41;;;;;;;9.73;9.13;;;3.50;99.90;;;;;;5051294;28;20664;-65
2023/01/24 01:14:08;;;;;;;12.20;11.30;;;3.50;99.90;;;;;;5051048;28;20214;-65
2023/01/24 01:16:37;;;;;;;10.97;10.27;;;3.40;99.90;;;;;;5051128;28;20199;-65
2023/01/24 01:19:04;;;;;;;11.23;10.47;;;3.40;1.00;;;;;;5051249;28;20171;-65
2023/01/24 01:21:29;;;;;;;10.90;9.90;;;3.40;99.90;;;;;;5051279;28;20179;-65
2023/01/24 01:23:55;;;;;;;9.00;8.60;;;3.40;99.90;;;;;;5051183;28;20704;-65
2023/01/24 01:26:21;;;;;;;8.27;7.77;;;3.30;99.90;;;;;;5050996;28;20205;-65
2023/01/24 01:28:47;;;;;;;9.97;9.37;;;3.30;94.80;;;;;;5051272;28;20306;-65
2023/01/24 01:31:14;;;;;;;9.30;8.80;;;3.30;81.00;;;;;;5050718;28;20185;-65
2023/01/24 01:33:40;;;;;;;9.87;9.27;;;3.30;81.40;;;;;;5051193;28;20544;-64
2023/01/24 01:36:06;;;;;;;10.07;9.30;;;3.30;41.90;;;;;;5050849;28;20194;-65
2023/01/24 01:38:32;;;;;;;8.83;8.33;;;3.20;1.00;;;;;;5051057;28;20193;-65
2023/01/24 01:40:58;;;;;;;8.97;8.27;;;3.20;1.00;;;;;;5050426;28;20171;-65
2023/01/24 01:43:27;;;;;;;8.77;8.13;;;3.20;1.00;;;;;;5051081;28;20178;-65
2023/01/24 01:45:57;;;;;;;8.27;7.70;;;3.30;1.00;;;;;;5051111;28;20214;-65
2023/01/24 01:48:27;;;;;;;8.00;7.60;;;3.20;1.00;;;;;;5051707;28;20280;-65
2023/01/24 01:51:09;;;;;;;9.37;8.53;;;3.20;99.90;;;;;;5051830;28;20170;-64
2023/01/24 01:53:40;;;;;;;9.90;9.27;;;3.20;13.50;;;;;;5052372;28;20212;-65
2023/01/24 01:56:21;;;;;;;8.43;7.93;;;3.20;99.90;;;;;;5050708;28;20213;-65
2023/01/24 01:58:47;;;;;;;8.97;8.30;;;3.20;69.50;;;;;;5050857;28;20211;-65
2023/01/24 02:01:13;;;;;;;8.23;7.73;;;3.20;1.00;;;;;;5050590;28;20614;-66
2023/01/24 02:03:50;;;;;;;7.50;6.97;;;3.20;1.00;;;;;;5051428;28;20286;-66
2023/01/24 02:06:27;;;;;;;7.57;7.17;;;3.20;1.00;;;;;;5054597;28;20203;-66
2023/01/24 02:08:54;;;;;;;9.80;9.00;;;3.10;1.00;;;;;;5054767;28;20187;-65
2023/01/24 02:11:38;;;;;;;7.57;7.10;;;3.20;1.00;;;;;;5053776;28;20264;-65
2023/01/24 02:16:52;;;;;;;9.10;8.53;;;3.10;1.00;;;;;;5055025;28;20556;-63
2023/01/24 02:19:36;;;;;;;8.83;8.20;;;3.20;82.40;;;;;;5054293;28;20186;-65
2023/01/24 02:22:29;;;;;;;9.20;8.50;;;3.20;4.70;;;;;;5053183;28;20182;-65
2023/01/24 02:25:18;;;;;;;8.73;8.17;;;3.20;99.90;;;;;;5044134;28;20281;-65
2023/01/24 02:27:44;;;;;;;9.27;8.40;;;3.20;99.90;;;;;;5054557;28;20628;-66
2023/01/24 02:30:10;;;;;;;9.97;9.17;;;3.20;99.90;;;;;;5053881;28;20210;-66
2023/01/24 02:32:35;;;;;;;8.40;7.90;;;3.20;99.90;;;;;;5054634;28;20179;-65
2023/01/24 02:35:02;;;;;;;9.53;8.93;;;3.10;1.00;;;;;;5054172;28;20195;-65
2023/01/24 02:37:28;;;;;;;8.70;8.07;;;3.10;52.80;;;;;;5054445;28;20179;-66
2023/01/24 02:39:59;;;;;;;9.23;8.60;;;3.10;99.60;;;;;;5054036;28;20341;-66
2023/01/24 02:42:37;;;;;;;9.47;8.77;;;3.10;99.90;;;;;;5054081;28;20181;-65
2023/01/24 02:45:19;;;;;;;9.20;8.57;;;3.10;99.90;;;;;;5055199;28;20285;-66
2023/01/24 02:47:49;;;;;;;9.40;8.73;;;3.10;99.90;;;;;;5055348;28;20196;-66
2023/01/24 02:50:19;;;;;;;8.83;8.33;;;3.10;99.90;;;;;;5055187;28;20678;-66
2023/01/24 02:55:29;;;;;;;9.90;9.20;;;3.10;99.90;;;;;;5053438;28;20306;-65
2023/01/24 02:58:05;;;;;;;8.77;8.17;;;3.10;99.90;;;;;;5053564;28;20257;-65
2023/01/24 03:00:35;;;;;;;9.07;8.47;;;3.10;99.90;;;;;;5053490;28;20186;-65
2023/01/24 03:03:02;;;;;;;9.80;9.10;;;3.20;99.90;;;;;;5053430;28;20171;-65
2023/01/24 03:05:39;;;;;;;10.17;9.53;;;3.20;99.90;;;;;;5053013;28;20202;-65
2023/01/24 03:08:08;;;;;;;8.77;8.07;;;3.20;99.90;;;;;;5053398;28;20556;-65
2023/01/24 03:10:34;;;;;;;9.03;8.47;;;3.20;99.90;;;;;;5053410;28;20408;-65
2023/01/24 03:34:54;;;;;;;8.30;7.70;;;3.00;99.90;;;;;;5052924;28;20214;-65
2023/01/24 03:39:53;;;;;;;8.93;8.30;;;2.90;1.00;;;;;;5053207;28;20175;-65
2023/01/24 03:40:13;;;;;;;8.43;7.93;;;2.90;1.00;;;;;;5052205;28;20178;-64
2023/01/24 03:42:48;;;;;;;9.43;8.73;;;2.90;1.00;;;;;;5052755;28;20179;-65
2023/01/24 03:45:16;;;;;;;9.30;8.70;;;2.90;1.00;;;;;;5052610;28;20222;-64
2023/01/24 03:47:45;;;;;;;10.37;9.57;;;2.80;1.00;;;;;;5052285;28;20225;-65
2023/01/24 03:52:56;;;;;;;7.80;7.37;;;2.90;1.00;;;;;;5052770;28;20201;-64
2023/01/24 03:55:21;;;;;;;8.43;7.83;;;2.90;1.00;;;;;;5052688;28;20603;-64
2023/01/24 03:57:47;;;;;;;9.63;8.90;;;2.90;1.00;;;;;;5052553;28;20186;-65
2023/01/24 04:00:14;;;;;;;8.50;7.90;;;2.90;1.00;;;;;;5052138;28;20228;-65
2023/01/24 04:02:39;;;;;;;8.77;8.17;;;2.80;1.00;;;;;;5052278;28;20257;-65
2023/01/24 04:05:15;;;;;;;8.20;7.70;;;2.80;1.00;;;;;;5052187;28;20270;-65
2023/01/24 04:07:41;;;;;;;8.90;8.30;;;2.90;1.00;;;;;;5052654;28;20540;-65
2023/01/24 04:10:07;;;;;;;9.23;8.50;;;2.80;1.00;;;;;;5051759;28;20209;-66
2023/01/24 04:12:32;;;;;;;8.77;8.17;;;2.80;1.00;;;;;;5052183;28;20183;-65
2023/01/24 04:14:58;;;;;;;8.40;7.67;;;2.80;1.00;;;;;;5052172;28;20268;-65
2023/01/24 04:17:23;;;;;;;9.70;9.00;;;2.80;1.00;;;;;;5052301;28;20207;-64
2023/01/24 04:19:49;;;;;;;9.63;8.90;;;2.80;1.00;;;;;;5052181;28;20364;-66
2023/01/24 04:22:16;;;;;;;8.67;7.87;;;2.80;1.00;;;;;;5052144;28;20189;-65
2023/01/24 04:24:42;;;;;;;8.80;8.23;;;2.80;1.00;;;;;;5052412;28;20254;-66
2023/01/24 04:27:08;;;;;;;9.63;8.80;;;2.80;1.00;;;;;;5051772;28;20660;-65
2023/01/24 04:29:33;;;;;;;8.60;8.00;;;2.70;1.00;;;;;;5048575;28;20244;-66
2023/01/24 04:31:59;;;;;;;7.97;7.43;;;2.70;1.00;;;;;;5032152;28;20179;-65
2023/01/24 04:34:24;;;;;;;8.60;8.00;;;2.70;1.00;;;;;;5032130;28;20542;-65
2023/01/24 04:36:50;;;;;;;9.50;8.80;;;2.70;1.00;;;;;;5032122;28;20195;-65
2023/01/24 04:39:16;;;;;;;8.90;8.20;;;2.70;1.00;;;;;;5030560;28;20179;-65
2023/01/24 04:41:41;;;;;;;9.70;8.80;;;2.70;1.00;;;;;;5032228;28;20676;-66
2023/01/24 04:44:07;;;;;;;7.83;7.33;;;2.70;1.00;;;;;;5044023;28;20187;-65
2023/01/24 04:46:32;;;;;;;7.40;7.00;;;2.70;1.00;;;;;;5051311;28;20249;-65
2023/01/24 04:48:58;;;;;;;8.63;8.13;;;2.70;1.00;;;;;;5051720;28;20244;-66
2023/01/24 04:51:24;;;;;;;9.17;8.57;;;2.70;1.00;;;;;;5051650;28;20178;-66
2023/01/24 04:53:49;;;;;;;10.03;8.47;;;2.70;1.00;;;;;;5051931;28;20273;-65
2023/01/24 04:56:15;;;;;;;8.20;7.60;;;2.70;1.00;;;;;;5051613;28;20195;-66
2023/01/24 04:58:40;;;;;;;7.87;7.37;;;2.70;1.00;;;;;;5051735;28;20228;-64
2023/01/24 05:01:06;;;;;;;9.63;8.93;;;2.70;1.00;;;;;;5051008;28;20174;-66
2023/01/24 05:03:31;;;;;;;8.57;7.90;;;2.70;1.00;;;;;;5051293;28;20178;-65
2023/01/24 05:05:57;;;;;;;8.50;7.93;;;2.70;1.00;;;;;;5051248;28;20217;-66
2023/01/24 05:08:23;;;;;;;8.13;7.63;;;2.70;1.00;;;;;;5051283;28;20186;-65
2023/01/24 05:10:48;;;;;;;8.70;8.10;;;2.70;1.00;;;;;;5051198;28;20257;-66
2023/01/24 05:13:14;;;;;;;8.10;7.60;;;2.60;1.00;;;;;;5051059;28;20186;-66
2023/01/24 05:15:49;;;;;;;9.50;8.60;;;2.60;1.00;;;;;;5043967;28;20206;-65
2023/01/24 05:18:15;;;;;;;8.70;8.00;;;2.60;1.00;;;;;;5050944;28;20178;-65
2023/01/24 05:20:41;;;;;;;8.17;7.77;;;2.60;1.00;;;;;;5051163;28;20569;-65
2023/01/24 05:23:06;;;;;;;8.00;7.40;;;2.60;1.00;;;;;;5051315;28;20643;-66
2023/01/24 05:25:32;;;;;;;8.20;7.70;;;2.60;1.00;;;;;;5051187;28;20195;-65
2023/01/24 05:27:57;;;;;;;9.30;8.53;;;2.60;1.00;;;;;;5049858;28;20663;-65
2023/01/24 05:30:23;;;;;;;11.20;10.20;;;2.70;1.00;;;;;;5050739;28;20198;-66
2023/01/24 05:32:49;;;;;;;9.63;8.03;;;2.70;1.00;;;;;;5051120;28;20244;-66
2023/01/24 05:35:14;;;;;;;9.17;8.40;;;2.60;1.00;;;;;;5050993;28;20221;-65
2023/01/24 05:37:40;;;;;;;8.90;8.27;;;2.60;1.00;;;;;;5051314;28;20762;-65
2023/01/24 05:40:08;;;;;;;8.30;7.80;;;2.60;1.00;;;;;;5054131;28;20528;-65
2023/01/24 05:42:33;;;;;;;8.53;7.83;;;2.60;1.00;;;;;;5054702;28;20178;-65
2023/01/24 05:44:59;;;;;;;8.13;7.50;;;2.60;1.00;;;;;;5055127;28;20167;-65
2023/01/24 05:47:24;;;;;;;8.67;8.03;;;2.60;1.00;;;;;;5053676;28;20194;-66
2023/01/24 05:49:50;;;;;;;8.37;7.70;;;2.60;40.00;;;;;;5054549;28;20190;-64
2023/01/24 05:52:21;;;;;;;7.87;7.37;;;2.60;1.00;;;;;;5054828;28;20187;-66
2023/01/24 05:54:50;;;;;;;9.50;8.70;;;2.60;1.00;;;;;;5054919;28;20293;-65
2023/01/24 05:57:17;;;;;;;8.77;8.13;;;2.60;1.00;;;;;;5054777;28;20202;-65
2023/01/24 05:59:42;;;;;;;8.77;8.13;;;2.60;1.00;;;;;;5054845;28;20175;-65
2023/01/24 06:02:08;;;;;;;9.20;8.37;;;2.60;1.00;;;;;;5054428;28;20535;-66
2023/01/24 06:04:34;;;;;;;8.27;7.67;;;2.60;1.00;;;;;;5054381;28;20193;-66
2023/01/24 06:07:00;;;;;;;8.73;7.97;;;2.60;1.00;;;;;;5054647;28;20294;-65
2023/01/24 06:09:26;;;;;;;8.17;7.60;;;2.60;1.00;;;;;;5054524;28;20191;-66
2023/01/24 06:11:51;;;;;;;7.57;6.87;;;2.50;1.00;;;;;;5054560;28;20179;-65
2023/01/24 06:14:17;;;;;;;8.33;7.73;;;2.50;1.00;;;;;;5054485;28;20619;-65
2023/01/24 06:16:44;;;;;;;8.77;8.07;;;2.50;1.00;;;;;;5054714;28;20285;-64
2023/01/24 06:19:11;;;;;;;8.77;8.07;;;2.60;1.00;;;;;;5054939;28;20647;-66
2023/01/24 06:21:43;;;;;;;9.50;8.73;;;2.50;1.00;;;;;;5054651;28;20195;-65
2023/01/24 06:24:22;;;;;;;7.97;7.50;;;2.60;1.00;;;;;;5054307;28;20653;-65
2023/01/24 06:26:49;;;;;;;7.53;7.13;;;2.60;1.00;;;;;;5054591;28;20199;-65
2023/01/24 06:29:16;;;;;;;9.20;8.50;;;2.60;1.00;;;;;;5054148;28;20179;-64
2023/01/24 06:32:00;;;;;;;9.83;8.87;;;2.60;1.00;;;;;;5035349;28;20175;-65
2023/01/24 06:34:29;;;;;;;10.17;9.37;;;2.60;1.00;;;;;;5034349;28;20729;-65
2023/01/24 06:37:19;;;;;;;8.10;7.60;;;2.60;1.00;;;;;;5034639;28;20572;-65
2023/01/24 06:39:50;;;;;;;8.63;8.03;;;2.60;1.00;;;;;;5034060;28;20235;-65
2023/01/24 06:42:21;;;;;;;10.00;9.10;;;2.60;1.00;;;;;;5038931;28;20827;-64
2023/01/24 06:44:47;;;;;;;9.00;8.40;;;2.50;99.90;;;;;;5048445;28;20182;-66
2023/01/24 06:47:13;;;;;;;8.53;7.80;;;2.60;99.90;;;;;;5053716;28;20229;-66
2023/01/24 06:49:39;;;;;;;9.47;7.80;;;2.60;99.90;;;;;;5053805;28;20175;-65
2023/01/24 06:52:06;;;;;;;8.17;7.67;;;2.60;99.90;;;;;;5053307;28;20556;-66
2023/01/24 06:54:33;;;;;;;8.63;8.03;;;2.60;99.90;;;;;;5053952;28;20202;-65
2023/01/24 06:56:59;;;;;;;7.50;7.10;;;2.60;99.90;;;;;;5044774;28;20227;-65
2023/01/24 06:59:25;;;;;;;9.13;8.27;;;2.60;1.00;;;;;;5053651;28;20178;-66
2023/01/24 07:01:50;;;;;;;7.83;7.23;;;2.70;1.00;;;;;;5052369;28;20183;-65
2023/01/24 07:04:17;;;;;;;7.97;7.27;;;2.70;1.00;;;;;;5053454;28;20575;-65
2023/01/24 07:06:42;;;;;;;8.80;7.97;;;2.70;1.00;;;;;;5053424;28;20245;-65
2023/01/24 07:09:08;;;;;;;8.47;7.90;;;2.60;1.00;;;;;;5053330;28;20207;-64
2023/01/24 07:11:34;;;;;;;9.23;8.03;;;2.60;1.00;;;;;;5053430;28;20183;-66
2023/01/24 07:13:59;;;;;;;8.87;7.83;;;2.60;1.00;;;;;;5053602;28;20206;-65
2023/01/24 07:16:25;;;;;;;7.97;7.37;;;2.60;1.00;;;;;;5051675;28;20200;-65
2023/01/24 07:18:51;;;;;;;8.37;7.87;;;2.60;1.00;;;;;;5053739;28;20248;-65
2023/01/24 07:21:17;;;;;;;9.10;8.40;;;2.60;1.00;;;;;;5052693;28;20182;-65
2023/01/24 07:23:47;;;;;;;9.10;8.23;;;2.60;1.00;;;;;;5053317;28;20628;-64
2023/01/24 07:26:14;;;;;;;9.10;8.37;;;2.60;1.00;;;;;;5052445;28;20587;-65
2023/01/24 07:28:41;;;;;;;8.20;7.70;;;2.70;1.00;;;;;;5053483;28;20167;-65
2023/01/24 07:31:09;;;;;;;8.57;7.87;;;2.70;1.00;;;;;;5047444;28;20183;-64
2023/01/24 07:33:35;;;;;;;9.37;8.57;;;2.70;1.00;;;;;;5053205;28;20179;-65
2023/01/24 07:36:09;;;;;;;8.50;8.00;;;2.70;1.00;;;;;;5049799;28;20280;-64
2023/01/24 07:38:35;;;;;;;8.57;7.97;;;2.70;1.00;;;;;;5053255;28;20666;-65
2023/01/24 07:41:09;;;;;;;8.23;7.50;;;2.70;1.00;;;;;;5052540;28;20213;-64
2023/01/24 07:43:35;;;;;;;8.00;7.50;;;2.60;1.00;;;;;;5053521;28;20436;-65
2023/01/24 07:46:00;;;;;;;9.60;8.80;;;2.60;1.00;;;;;;5074092;23;20218;-63
2023/01/24 07:48:26;;;;;;;8.87;8.13;;;2.60;1.00;;;;;;5052822;28;20643;-64
2023/01/24 07:50:51;;;;;;;8.83;8.23;;;2.60;1.00;;;;;;5051734;28;20576;-65
2023/01/24 07:53:17;;;;;;;9.87;9.10;;;2.60;1.00;;;;;;5049102;28;20190;-65
2023/01/24 07:55:43;;;;;;;8.80;8.30;;;2.60;1.00;;;;;;5051453;28;20218;-64
2023/01/24 07:58:08;;;;;;;11.23;9.20;;;2.60;1.00;;;;;;5052851;28;20167;-64
2023/01/24 08:00:34;;;;;;;12.47;9.70;;;2.60;1.00;;;;;;5052649;28;20174;-64
2023/01/24 08:02:59;;;;;;;9.70;8.83;;;2.60;1.00;;;;;;5034235;28;20262;-63
2023/01/24 08:05:25;;;;;;;8.60;8.00;;;2.60;1.00;;;;;;5032646;28;20228;-64
2023/01/24 08:07:52;;;;;;;8.93;8.33;;;2.70;1.00;;;;;;5032755;28;20258;-64
2023/01/24 08:10:18;;;;;;;8.43;7.93;;;2.60;99.90;;;;;;5031972;28;20180;-64
2023/01/24 08:12:44;;;;;;;8.83;8.23;;;2.60;99.90;;;;;;5032011;28;20692;-65
2023/01/24 08:15:10;;;;;;;10.33;9.40;;;2.60;99.90;;;;;;5050873;28;20202;-65
2023/01/24 08:17:36;;;;;;;8.57;7.97;;;2.60;99.90;;;;;;5046649;28;20566;-64
2023/01/24 08:20:02;;;;;;;8.80;8.13;;;2.60;99.90;;;;;;5031910;28;20640;-64
2023/01/24 08:22:28;;;;;;;8.73;8.03;;;2.60;99.90;;;;;;5032078;28;20175;-64
2023/01/24 08:24:53;;;;;;;9.70;8.93;;;2.70;99.90;;;;;;5032277;28;20261;-64
2023/01/24 08:27:19;;;;;;;8.83;8.23;;;2.70;99.90;;;;;;5031906;28;20195;-64
2023/01/24 08:29:45;;;;;;;7.97;7.47;;;2.80;99.90;;;;;;5032041;28;20202;-64
2023/01/24 08:32:10;;;;;;;10.73;9.73;;;2.70;99.90;;;;;;5031857;28;20176;-64
2023/01/24 08:34:36;;;;;;;8.13;7.63;;;2.70;99.90;;;;;;5032471;28;20199;-64
2023/01/24 08:37:01;;;;;;;9.50;8.90;;;2.70;99.90;;;;;;5031769;28;20199;-64
2023/01/24 08:39:27;;;;;;;7.10;6.80;;;2.70;99.90;;;;;;5031943;28;20591;-64
2023/01/24 08:41:52;;;;;;;7.70;7.20;;;2.70;99.90;;;;;;5031640;28;20183;-64
2023/01/24 08:44:18;;;;;;;8.47;7.97;;;2.80;98.40;;;;;;5031919;28;20208;-65
2023/01/24 08:46:44;;;;;;;8.13;7.53;;;2.80;92.10;;;;;;5027230;28;20223;-64
2023/01/24 08:49:11;;;;;;;8.57;7.97;;;2.70;55.60;;;;;;5030919;28;20179;-65
2023/01/24 08:51:36;;;;;;;8.30;7.83;;;2.70;99.90;;;;;;5031651;28;20258;-64
2023/01/24 08:54:04;;;;;;;7.90;7.50;;;2.80;99.90;;;;;;5031746;28;20287;-64
2023/01/24 08:56:30;;;;;;;9.00;8.40;;;2.80;99.90;;;;;;5031695;28;20207;-64
2023/01/24 08:58:55;;;;;;;8.87;7.97;;;2.80;99.90;;;;;;5031475;28;20184;-64
2023/01/24 09:01:21;;;;;;;8.17;7.67;;;2.90;91.50;;;;;;5031633;28;20250;-65
2023/01/24 09:03:48;;;;;;;9.03;8.27;;;2.90;99.90;;;;;;5031476;28;20171;-64
2023/01/24 09:06:14;;;;;;;7.43;7.03;;;2.90;1.00;;;;;;5030495;28;20325;-64
2023/01/24 09:08:40;;;;;;;8.47;7.87;;;2.90;47.80;;;;;;5031279;28;20237;-64
2023/01/24 09:11:05;;;;;;;8.57;8.03;;;3.00;99.20;;;;;;5031231;28;20556;-64
2023/01/24 09:13:31;;;;;;;9.57;8.87;;;3.00;99.90;;;;;;5030553;28;20230;-64
2023/01/24 09:15:59;;;;;;;8.93;8.43;;;3.00;92.50;;;;;;5031353;28;20315;-65
2023/01/24 09:18:25;;;;;;;9.57;8.90;;;3.10;99.90;;;;;;5030915;28;20264;-64
2023/01/24 09:20:51;;;;;;;9.10;8.30;;;3.10;30.60;;;;;;5028853;28;20596;-64
2023/01/24 09:23:16;;;;;;;9.40;8.73;;;3.10;20.70;;;;;;5033900;28;20300;-64
2023/01/24 09:25:50;;;;;;;10.40;9.63;;;3.20;53.20;;;;;;5031452;28;20672;-64
2023/01/24 09:28:18;;;;;;;9.13;8.57;;;3.30;62.40;;;;;;5031007;28;20202;-64
2023/01/24 09:30:43;;;;;;;9.90;9.30;;;3.30;92.60;;;;;;5031438;28;20167;-64
2023/01/24 09:33:09;;;;;;;10.40;9.70;;;3.20;1.00;;;;;;5031996;28;20180;-64
2023/01/24 09:35:34;;;;;;;9.97;9.20;;;3.20;1.00;;;;;;5031262;28;20211;-64
2023/01/24 09:38:00;;;;;;;9.00;8.50;;;3.20;1.00;;;;;;5031120;28;20175;-64
2023/01/24 09:40:50;;;;;;;8.63;8.23;;;3.20;1.00;;;;;;5030818;28;20195;-64
2023/01/24 09:43:43;;;;;;;10.33;9.43;;;3.30;6.20;;;;;;5029623;28;20595;-64
2023/01/24 09:46:17;;;;;;;9.07;8.57;;;3.30;6.70;;;;;;5030711;28;20211;-65
2023/01/24 09:48:44;;;;;;;9.23;8.47;;;3.30;1.00;;;;;;5031345;28;20164;-64
2023/01/24 09:51:19;;;;;;;8.00;7.57;;;3.20;5.50;;;;;;5030666;28;20445;-64
2023/01/24 09:53:49;;;;;;;8.80;8.27;;;3.20;30.20;;;;;;5031158;28;20229;-64
2023/01/24 09:56:34;;;;;;;8.53;7.93;;;3.10;31.20;;;;;;5030684;28;20197;-64
2023/01/24 09:59:12;;;;;;;8.57;7.73;;;3.20;54.20;;;;;;5031086;28;20603;-64
2023/01/24 10:01:40;;;;;;;8.83;8.23;;;3.10;30.80;;;;;;5030891;28;20205;-64
2023/01/24 10:04:16;;;;;;;8.20;7.77;;;3.00;99.90;;;;;;5030608;28;20648;-65
2023/01/24 10:06:56;;;;;;;9.20;8.60;;;3.10;33.60;;;;;;5030833;28;20245;-64
2023/01/24 10:09:32;;;;;;;8.57;7.77;;;3.10;75.80;;;;;;5030779;28;20556;-64
2023/01/24 10:12:14;;;;;;;9.33;8.43;;;3.10;32.70;;;;;;5030832;28;20233;-64
2023/01/24 10:15:07;;;;;;;9.67;8.97;;;3.10;99.90;;;;;;5030684;28;20283;-64
2023/01/24 10:18:02;;;;;;;8.30;7.70;;;3.20;56.40;;;;;;5030751;28;20739;-64
2023/01/24 10:20:52;;;;;;;9.00;8.33;;;3.10;1.00;;;;;;5030682;28;20168;-64
2023/01/24 10:23:26;;;;;;;8.40;7.67;;;3.10;1.00;;;;;;5030892;28;20179;-64
2023/01/24 10:26:19;;;;;;;8.73;7.93;;;3.20;73.00;;;;;;5033644;28;20710;-64
2023/01/24 10:28:50;;;;;;;8.17;7.67;;;3.20;64.00;;;;;;5034270;28;20184;-65
2023/01/24 10:31:34;;;;;;;10.43;9.83;;;3.30;6.10;;;;;;5034140;28;20186;-64
2023/01/24 10:34:16;;;;;;;11.17;9.90;;;3.30;67.70;;;;;;5034189;28;20598;-64
2023/01/24 10:36:51;;;;;;;11.87;10.80;;;3.30;1.00;;;;;;5034260;28;20219;-64
2023/01/24 10:39:17;;;;;;;11.47;10.70;;;3.30;1.00;;;;;;5037765;28;20667;-64
2023/01/24 10:41:42;;;;;;;12.60;11.80;;;3.30;1.00;;;;;;5038924;28;20172;-64
2023/01/24 10:44:35;;;;;;;11.93;11.30;;;3.40;1.00;;;;;;5042516;28;20195;-64
2023/01/24 10:47:08;;;;;;;11.87;11.23;;;3.40;11.10;;;;;;5031733;28;20231;-64
2023/01/24 10:49:40;;;;;;;11.97;11.27;;;3.50;1.00;;;;;;5033925;28;20191;-64
2023/01/24 10:52:23;;;;;;;10.73;10.00;;;3.50;1.00;;;;;;5033785;28;20369;-64
2023/01/24 10:54:52;;;;;;;11.67;10.97;;;3.60;1.00;;;;;;5034020;28;20203;-64
2023/01/24 10:57:18;;;;;;;11.37;10.67;;;3.60;1.00;;;;;;5033705;28;20195;-64
2023/01/24 10:59:44;;;;;;;11.33;10.67;;;3.70;1.00;;;;;;5033744;28;20229;-64
2023/01/24 11:02:22;;;;;;;10.97;10.23;;;3.70;1.00;;;;;;5033568;28;20168;-64
2023/01/24 11:04:59;;;;;;;12.87;12.27;;;3.70;1.00;;;;;;5033919;28;20175;-64
2023/01/24 11:07:49;;;;;;;11.97;11.27;;;3.70;1.00;;;;;;5033364;28;20197;-64
2023/01/24 11:10:25;;;;;;;11.83;11.07;;;3.70;1.00;;;;;;5015336;28;20211;-63
2023/01/24 11:12:59;;;;;;;11.17;10.57;;;3.80;1.00;;;;;;5020740;28;20182;-64
2023/01/24 11:15:33;;;;;;;12.50;11.70;;;3.80;1.00;;;;;;5033479;28;20210;-64
2023/01/24 11:18:06;;;;;;;10.63;10.10;;;3.80;1.00;;;;;;5033135;28;20262;-64
2023/01/24 11:20:34;;;;;;;10.70;10.20;;;3.70;1.00;;;;;;5030735;28;20246;-64
2023/01/24 11:23:18;;;;;;;11.20;10.53;;;3.70;1.00;;;;;;5032985;28;20168;-64
2023/01/24 11:26:24;;;;;;;10.70;10.10;;;3.60;1.00;;;;;;5033300;28;20199;-64
2023/01/24 11:29:05;;;;;;;10.43;9.77;;;3.60;1.00;;;;;;5026927;28;20187;-64
2023/01/24 11:31:48;;;;;;;10.83;10.10;;;3.50;1.00;;;;;;5033170;28;20612;-64
2023/01/24 11:34:28;;;;;;;10.80;10.20;;;3.50;1.00;;;;;;5033121;28;20637;-64
2023/01/24 11:37:18;;;;;;;10.70;10.10;;;3.60;1.00;;;;;;5032135;28;20211;-64
2023/01/24 11:40:08;;;;;;;9.70;9.10;;;3.60;1.00;;;;;;5032785;28;20168;-64
2023/01/24 11:42:43;;;;;;;10.07;9.50;;;3.60;1.00;;;;;;5032830;28;20184;-63
2023/01/24 11:45:30;;;;;;;10.17;9.57;;;3.60;1.00;;;;;;5033141;28;20179;-63
2023/01/24 11:48:15;;;;;;;10.77;10.17;;;3.60;1.00;;;;;;5033825;28;20241;-64
2023/01/24 11:50:57;;;;;;;10.40;9.70;;;3.50;1.00;;;;;;5032858;28;20258;-64
2023/01/24 11:53:31;;;;;;;10.00;9.40;;;3.60;1.00;;;;;;5029909;28;20194;-64
2023/01/24 11:56:34;;;;;;;12.07;10.93;;;3.70;1.00;;;;;;5044007;28;20205;-63
2023/01/24 11:59:11;;;;;;;9.93;9.43;;;3.60;1.00;;;;;;5052624;28;20283;-64
2023/01/24 12:01:48;;;;;;;10.17;9.37;;;3.70;1.00;;;;;;5052661;28;20206;-64
2023/01/24 12:04:32;;;;;;;9.73;9.03;;;3.70;1.00;;;;;;5040265;28;20548;-64
2023/01/24 12:07:01;;;;;;;9.53;8.97;;;3.70;1.00;;;;;;5032598;28;20199;-64
2023/01/24 12:09:33;;;;;;;9.07;8.47;;;3.80;1.00;;;;;;5032043;28;20187;-64
2023/01/24 12:11:58;;;;;;;9.83;9.13;;;3.80;1.00;;;;;;5032522;28;20544;-64
2023/01/24 12:14:42;;;;;;;9.23;8.70;;;3.80;1.00;;;;;;5031840;28;20208;-64
2023/01/24 12:17:33;;;;;;;9.80;9.03;;;3.80;1.00;;;;;;5032400;28;20564;-64
2023/01/24 12:20:31;;;;;;;10.63;10.03;;;3.80;1.00;;;;;;5031925;28;20183;-64
2023/01/24 12:23:07;;;;;;;10.00;9.30;;;3.80;1.00;;;;;;5032508;28;20632;-64
2023/01/24 12:25:38;;;;;;;10.13;9.47;;;3.80;1.00;;;;;;5014845;28;20211;-64
2023/01/24 12:28:14;;;;;;;9.60;8.83;;;3.90;1.00;;;;;;5032149;28;20175;-64
2023/01/24 12:30:50;;;;;;;8.53;7.90;;;4.00;1.00;;;;;;5012010;28;20198;-64
2023/01/24 12:33:54;;;;;;;8.80;8.30;;;4.00;1.00;;;;;;5012987;28;20191;-64
2023/01/24 12:36:35;;;;;;;9.43;8.63;;;4.00;1.00;;;;;;5029560;28;20221;-64
2023/01/24 12:39:10;;;;;;;10.53;9.93;;;3.90;1.00;;;;;;5023682;28;20176;-64
2023/01/24 12:41:37;;;;;;;10.53;9.77;;;3.80;1.00;;;;;;5011327;28;20191;-64
2023/01/24 12:44:03;;;;;;;11.23;10.43;;;3.90;1.00;;;;;;5017955;28;20475;-64
2023/01/24 12:46:56;;;;;;;10.20;9.60;;;3.90;1.00;;;;;;5031768;28;20215;-64
2023/01/24 12:49:27;;;;;;;10.53;9.77;;;4.00;1.00;;;;;;5030421;28;20191;-64
2023/01/24 12:52:12;;;;;;;11.07;10.13;;;4.00;1.00;;;;;;5031764;28;20577;-64
2023/01/24 12:55:13;;;;;;;9.90;9.30;;;4.10;1.00;;;;;;5031356;28;20207;-64
2023/01/24 12:57:45;;;;;;;9.50;9.00;;;4.00;1.00;;;;;;5032080;28;20533;-64
2023/01/24 13:00:16;;;;;;;10.43;9.73;;;3.80;1.00;;;;;;5029347;28;20183;-64
2023/01/24 13:02:58;;;;;;;9.73;8.93;;;3.90;1.00;;;;;;5021811;28;20267;-64
2023/01/24 13:05:45;;;;;;;9.93;9.40;;;3.90;1.00;;;;;;5026467;28;20183;-64
2023/01/24 13:08:22;;;;;;;10.77;10.07;;;3.90;1.00;;;;;;5031510;28;20202;-65
2023/01/24 13:10:53;;;;;;;11.23;10.33;;;3.90;1.00;;;;;;5031036;28;20187;-64
2023/01/24 13:13:28;;;;;;;9.63;8.93;;;3.90;1.00;;;;;;5031445;28;20176;-64
2023/01/24 13:16:05;;;;;;;10.13;9.40;;;3.80;1.00;;;;;;5031115;28;20233;-64
2023/01/24 13:19:00;;;;;;;10.57;9.73;;;3.80;1.00;;;;;;5031478;28;20529;-64
2023/01/24 13:21:56;;;;;;;10.87;10.17;;;3.80;1.00;;;;;;5011491;28;20187;-64
2023/01/24 13:24:37;;;;;;;10.57;9.87;;;3.90;1.00;;;;;;5016102;28;20194;-65
2023/01/24 13:27:02;;;;;;;11.53;10.73;;;3.90;1.00;;;;;;5031167;28;20199;-64
2023/01/24 13:29:52;;;;;;;10.43;9.80;;;3.90;1.00;;;;;;5030710;28;20256;-64
2023/01/24 13:32:20;;;;;;;10.67;9.93;;;4.00;1.00;;;;;;5029209;28;20408;-64
2023/01/24 13:34:53;;;;;;;9.47;8.77;;;4.10;1.00;;;;;;5030943;28;20767;-64
2023/01/24 13:37:26;;;;;;;9.67;8.70;;;4.10;1.00;;;;;;5031142;28;20191;-64
2023/01/24 13:40:03;;;;;;;9.83;9.07;;;4.10;1.00;;;;;;5030796;28;20179;-64
2023/01/24 13:42:34;;;;;;;9.37;8.67;;;4.10;1.00;;;;;;5030899;28;20193;-64
2023/01/24 13:45:24;;;;;;;10.13;9.40;;;4.10;1.00;;;;;;5030963;28;20214;-65
2023/01/24 13:47:50;;;;;;;10.00;9.30;;;4.00;1.00;;;;;;5031636;28;20616;-64
2023/01/24 13:50:26;;;;;;;10.90;9.83;;;3.90;1.00;;;;;;5029534;28;20179;-64